Airfield :
LOGIN :

Register | Disclaimer

   EN    FR    IT 

 










Legend :    VFR   Marginal VFR   IFR   Intensive IFR   Very Intensive IFR
Visi :
Ceiling :
>= 8 km
>= 3000ft
5 to 8 km
1000 to 3000 ft
1500m to 5 km
500 to 1000 ft
800 to 1500m
200 to 500 ft
< 800m
< 200 ft
Symbols :   Thunderstorms  Fog  Heavy snow  Heavy precipitations  Wind > 20 kt
SIGMETs :     Misc.  Thunderstorms  Icing  Turbulence  Mountain Waves  Volcanic Ashes






- Airport Elevation : 138 ft
- IATA code : BIO


LEBB - Bilbao

CURRENT METAR :
  • 142330Z AUTO 08003KT CAVOK 04/03 Q1001

EXPIRED METARs :
  • 142300Z AUTO 04003KT 010V120 9999 FEW036 05/04 Q1000
  • 142230Z 05004KT 020V080 9999 FEW040 05/03 Q1001 NOSIG
  • 142200Z VRB02KT 9999 FEW040 06/03 Q1001 NOSIG
  • 142130Z 27003KT 240V310 9999 FEW040 06/04 Q1000 NOSIG

TAF TAF LEBB
Valid from the 15 at 00:00 until the 16 at 00:00 UTC


142300Z 1500/1524 26008KT 9999 SCT025 BKN045 TX10/1514Z TN02/1506Z
TEMPO 1503/1515 29015G25KT 3000 RA SHRA SCT025TCU
PROB40
TEMPO 1504/1510 26025G38KT
BECMG 1508/1510 34009KT
PROB40
TEMPO 1504/1515 1500 SHRAGR TSRA BKN010 BKN020CB
PROB30
TEMPO 1515/1524 SHRA TSGR SCT020CB



MET'MAP, your aeronautical weather chart ! - Copyright ORBIFLY December 2007 - Disclaimer

ORBIFLY MET'MAP TEAM :

Programming & Development : Alexandra Zaïnal
Concept & Development : Baudouin d'Aumeries
Co-Development & Prog : Marc-Olivier Méhu
Technical & hardware support : Manuel Goepfert

Contact : metmap@orbifly.com




SOURCES & CREDITS :

   NOAA